createdAt,value
2022-11-30T00:00:00.732Z,1008.69
2022-11-30T00:05:00.738Z,1008.69
2022-11-30T00:10:00.558Z,1008.77
2022-11-30T00:15:00.455Z,1008.71
2022-11-30T00:20:00.361Z,1008.78
2022-11-30T00:25:00.381Z,1008.84
2022-11-30T00:30:00.247Z,1008.86
2022-11-30T00:35:00.285Z,1008.79
2022-11-30T00:40:00.181Z,1008.81
2022-11-30T00:45:00.084Z,1008.86
2022-11-30T00:49:59.996Z,1008.86
2022-11-30T00:55:03.645Z,1008.83
2022-11-30T00:59:59.851Z,1008.84
2022-11-30T01:04:59.771Z,1008.79
2022-11-30T01:09:59.712Z,1008.69
2022-11-30T01:14:59.694Z,1008.78
2022-11-30T01:19:59.639Z,1008.70
2022-11-30T01:24:59.616Z,1008.74
2022-11-30T01:29:59.688Z,1008.73
2022-11-30T01:34:59.465Z,1008.74
2022-11-30T01:39:59.382Z,1008.66
2022-11-30T01:44:59.546Z,1008.76
2022-11-30T01:49:59.267Z,1008.81
2022-11-30T01:54:59.178Z,1008.80
2022-11-30T01:59:59.214Z,1008.78
2022-11-30T02:04:59.054Z,1008.79
2022-11-30T02:09:58.958Z,1008.82
2022-11-30T02:14:58.889Z,1008.83
2022-11-30T02:19:58.842Z,1008.81
2022-11-30T02:24:58.822Z,1008.84
2022-11-30T02:29:58.737Z,1008.89
2022-11-30T02:34:58.658Z,1008.90
2022-11-30T02:39:58.560Z,1008.86
2022-11-30T02:44:58.496Z,1008.98
2022-11-30T02:49:58.423Z,1008.86
2022-11-30T02:54:58.397Z,1008.90
2022-11-30T02:59:58.320Z,1008.88
2022-11-30T03:04:58.229Z,1009.03
2022-11-30T03:09:58.199Z,1008.94
2022-11-30T03:14:58.090Z,1009.00
2022-11-30T03:19:58.075Z,1009.07
2022-11-30T03:24:57.956Z,1009.11
2022-11-30T03:29:57.933Z,1009.16
2022-11-30T03:34:57.884Z,1009.16
2022-11-30T03:39:58.531Z,1009.13
2022-11-30T03:44:57.706Z,1009.22
2022-11-30T03:49:57.651Z,1009.20
2022-11-30T03:54:57.733Z,1009.24
2022-11-30T03:59:57.516Z,1009.14
2022-11-30T04:04:57.482Z,1009.28
2022-11-30T04:09:57.387Z,1009.18
2022-11-30T04:14:57.322Z,1009.26
2022-11-30T04:20:01.255Z,1009.20
2022-11-30T04:24:57.187Z,1009.30
2022-11-30T04:29:57.154Z,1009.26
2022-11-30T04:34:57.036Z,1009.34
2022-11-30T04:39:57.059Z,1009.24
2022-11-30T04:44:56.986Z,1009.30
2022-11-30T04:49:56.870Z,1009.20
2022-11-30T04:54:56.798Z,1009.33
2022-11-30T04:59:56.823Z,1009.37
2022-11-30T05:04:56.681Z,1009.38
2022-11-30T05:09:56.606Z,1009.38
2022-11-30T05:14:56.570Z,1009.50
2022-11-30T05:19:56.474Z,1009.52
2022-11-30T05:24:56.404Z,1009.55
2022-11-30T05:29:56.389Z,1009.63
2022-11-30T05:34:56.455Z,1009.78
2022-11-30T05:39:56.279Z,1009.76
2022-11-30T05:44:56.202Z,1009.74
2022-11-30T05:49:56.114Z,1009.84
2022-11-30T05:54:56.071Z,1009.87
2022-11-30T05:59:55.979Z,1009.86
2022-11-30T06:04:55.975Z,1009.87
2022-11-30T06:09:55.870Z,1009.92
2022-11-30T06:14:55.801Z,1010.01
2022-11-30T06:19:55.758Z,1009.92
2022-11-30T06:24:55.650Z,1010.00
2022-11-30T06:29:55.700Z,1010.03
2022-11-30T06:34:55.619Z,1009.99
2022-11-30T06:40:06.403Z,1010.05
2022-11-30T06:44:56.554Z,1010.00
2022-11-30T06:49:55.460Z,1010.04
2022-11-30T06:54:55.652Z,1010.07
2022-11-30T06:59:55.417Z,1010.25
2022-11-30T07:04:55.257Z,1010.20
2022-11-30T07:09:55.117Z,1010.26
2022-11-30T07:14:55.186Z,1010.30
2022-11-30T07:19:54.954Z,1010.36
2022-11-30T07:24:54.932Z,1010.49
2022-11-30T07:29:54.814Z,1010.49
2022-11-30T07:34:55.019Z,1010.47
2022-11-30T07:39:54.828Z,1010.50
2022-11-30T07:44:58.703Z,1010.54
2022-11-30T07:49:55.177Z,1010.51
2022-11-30T07:54:54.819Z,1010.43
2022-11-30T07:59:54.458Z,1010.41
2022-11-30T08:04:54.418Z,1010.45
2022-11-30T08:09:54.324Z,1010.50
2022-11-30T08:15:18.809Z,1010.42
2022-11-30T08:19:55.222Z,1010.47
2022-11-30T08:24:54.141Z,1010.51
2022-11-30T08:29:54.853Z,1010.61
2022-11-30T08:34:54.009Z,1010.58
2022-11-30T08:39:53.950Z,1010.73
2022-11-30T08:44:53.859Z,1010.76
2022-11-30T08:49:53.963Z,1010.86
2022-11-30T08:54:54.111Z,1010.81
2022-11-30T08:59:54.539Z,1010.90
2022-11-30T09:04:53.599Z,1010.96
2022-11-30T09:09:53.508Z,1011.01
2022-11-30T09:14:57.961Z,1010.87
2022-11-30T09:19:53.433Z,1010.95
2022-11-30T09:24:53.325Z,1010.96
2022-11-30T09:29:54.045Z,1011.02
2022-11-30T09:34:54.372Z,1010.98
2022-11-30T09:39:53.146Z,1010.83
2022-11-30T09:44:53.078Z,1010.95
2022-11-30T09:49:53.056Z,1010.88
2022-11-30T09:54:53.028Z,1010.97
2022-11-30T09:59:53.375Z,1010.91
2022-11-30T10:04:53.007Z,1010.73
2022-11-30T10:10:09.350Z,1010.80
2022-11-30T10:14:57.240Z,1010.86
2022-11-30T10:19:53.647Z,1010.82
2022-11-30T10:24:52.536Z,1010.78
2022-11-30T10:29:52.540Z,1010.92
2022-11-30T10:34:52.407Z,1010.79
2022-11-30T10:39:52.393Z,1010.66
2022-11-30T10:44:52.332Z,1010.82
2022-11-30T10:49:52.497Z,1010.69
2022-11-30T10:54:52.320Z,1010.63
2022-11-30T10:59:52.247Z,1010.72
2022-11-30T11:04:52.115Z,1010.74
2022-11-30T11:09:52.104Z,1010.79
2022-11-30T11:14:51.944Z,1010.70
2022-11-30T11:19:51.941Z,1010.74
2022-11-30T11:24:51.847Z,1010.73
2022-11-30T11:29:51.753Z,1010.67
2022-11-30T11:34:51.760Z,1010.67
2022-11-30T11:39:51.576Z,1010.60
2022-11-30T11:44:51.580Z,1010.51
2022-11-30T11:49:51.553Z,1010.48
2022-11-30T11:54:51.500Z,1010.56
2022-11-30T11:59:51.374Z,1010.60
2022-11-30T12:04:51.459Z,1010.55
2022-11-30T12:09:51.220Z,1010.49
2022-11-30T12:14:51.208Z,1010.57
2022-11-30T12:19:51.322Z,1010.65
2022-11-30T12:24:51.176Z,1010.58
2022-11-30T12:29:51.033Z,1010.60
2022-11-30T12:34:50.838Z,1010.62
2022-11-30T12:39:50.842Z,1010.64
2022-11-30T12:44:50.806Z,1010.65
2022-11-30T12:49:50.726Z,1010.66
2022-11-30T12:54:50.607Z,1010.61
2022-11-30T12:59:50.764Z,1010.60
2022-11-30T13:04:57.680Z,1010.61
2022-11-30T13:09:51.700Z,1010.58
2022-11-30T13:14:50.566Z,1010.54
2022-11-30T13:19:50.405Z,1010.59
2022-11-30T13:24:50.381Z,1010.58
2022-11-30T13:29:50.240Z,1010.60
2022-11-30T13:34:50.117Z,1010.70
2022-11-30T13:39:50.323Z,1010.61
2022-11-30T13:44:50.285Z,1010.75
2022-11-30T13:49:50.190Z,1010.76
2022-11-30T13:54:50.167Z,1010.84
2022-11-30T13:59:49.784Z,1010.89
2022-11-30T14:04:49.900Z,1010.99
2022-11-30T14:09:49.964Z,1010.90
2022-11-30T14:14:49.777Z,1010.89
2022-11-30T14:19:50.065Z,1010.93
2022-11-30T14:24:49.405Z,1011.02
2022-11-30T14:29:49.594Z,1011.06
2022-11-30T14:34:49.436Z,1011.03
2022-11-30T14:39:49.714Z,1010.97
2022-11-30T14:44:51.070Z,1011.03
2022-11-30T14:49:49.427Z,1010.91
2022-11-30T14:54:49.036Z,1010.91
2022-11-30T14:59:49.223Z,1010.88
2022-11-30T15:04:49.718Z,1010.98
2022-11-30T15:09:48.987Z,1010.97
2022-11-30T15:14:49.496Z,1010.99
2022-11-30T15:19:49.171Z,1011.12
2022-11-30T15:24:48.969Z,1011.09
2022-11-30T15:29:48.752Z,1011.16
2022-11-30T15:34:52.223Z,1011.19
2022-11-30T15:39:49.906Z,1011.22
2022-11-30T15:44:48.604Z,1011.19
2022-11-30T15:49:48.654Z,1011.12
2022-11-30T15:54:48.352Z,1011.14
2022-11-30T15:59:48.466Z,1011.22
2022-11-30T16:04:48.154Z,1011.20
2022-11-30T16:09:48.354Z,1011.33
2022-11-30T16:14:48.016Z,1011.15
2022-11-30T16:19:48.169Z,1011.21
2022-11-30T16:24:48.636Z,1011.25
2022-11-30T16:29:52.161Z,1011.26
2022-11-30T16:34:48.736Z,1011.23
2022-11-30T16:39:47.906Z,1011.18
2022-11-30T16:44:47.651Z,1011.22
2022-11-30T16:49:48.096Z,1011.29
2022-11-30T16:54:47.449Z,1011.29
2022-11-30T16:59:50.736Z,1011.23
2022-11-30T17:04:47.734Z,1011.32
2022-11-30T17:09:47.301Z,1011.32
2022-11-30T17:14:47.552Z,1011.47
2022-11-30T17:19:49.249Z,1011.42
2022-11-30T17:24:47.504Z,1011.45
2022-11-30T17:29:47.034Z,1011.46
2022-11-30T17:34:47.269Z,1011.42
2022-11-30T17:39:46.945Z,1011.54
2022-11-30T17:44:47.179Z,1011.60
2022-11-30T17:49:46.763Z,1011.70
2022-11-30T17:54:47.075Z,1011.80
2022-11-30T17:59:46.606Z,1011.86
2022-11-30T18:04:47.045Z,1011.77
2022-11-30T18:09:46.531Z,1011.77
2022-11-30T18:14:46.970Z,1011.85
2022-11-30T18:19:46.392Z,1011.83
2022-11-30T18:24:46.758Z,1011.86
2022-11-30T18:29:46.244Z,1011.93
2022-11-30T18:34:46.511Z,1011.92
2022-11-30T18:39:46.159Z,1012.07
2022-11-30T18:44:46.377Z,1012.18
2022-11-30T18:49:46.061Z,1012.21
2022-11-30T18:54:46.243Z,1012.21
2022-11-30T18:59:48.732Z,1012.32
2022-11-30T19:04:47.152Z,1012.33
2022-11-30T19:09:46.627Z,1012.34
2022-11-30T19:14:46.278Z,1012.27
2022-11-30T19:19:45.597Z,1012.30
2022-11-30T19:24:45.744Z,1012.32
2022-11-30T19:29:45.471Z,1012.40
2022-11-30T19:34:45.698Z,1012.32
2022-11-30T19:39:45.530Z,1012.39
2022-11-30T19:44:45.338Z,1012.41
2022-11-30T19:49:45.228Z,1012.40
2022-11-30T19:54:45.490Z,1012.47
2022-11-30T19:59:45.046Z,1012.64
2022-11-30T20:04:45.177Z,1012.78
2022-11-30T20:09:45.269Z,1012.66
2022-11-30T20:14:46.086Z,1012.74
2022-11-30T20:19:45.063Z,1012.82
2022-11-30T20:24:44.862Z,1012.71
2022-11-30T20:29:44.667Z,1012.88
2022-11-30T20:34:45.372Z,1012.83
2022-11-30T20:39:46.227Z,1012.95
2022-11-30T20:44:44.487Z,1012.87
2022-11-30T20:49:44.578Z,1012.96
2022-11-30T20:54:44.427Z,1012.97
2022-11-30T20:59:44.610Z,1013.01
2022-11-30T21:04:44.383Z,1013.04
2022-11-30T21:09:44.255Z,1013.00
2022-11-30T21:14:44.194Z,1013.00
2022-11-30T21:19:44.163Z,1013.04
2022-11-30T21:24:44.001Z,1013.14
2022-11-30T21:29:44.035Z,1013.17
2022-11-30T21:34:43.888Z,1013.13
2022-11-30T21:39:43.824Z,1013.10
2022-11-30T21:44:43.895Z,1013.17
2022-11-30T21:49:43.631Z,1013.18
2022-11-30T21:54:43.577Z,1013.20
2022-11-30T21:59:43.606Z,1013.34
2022-11-30T22:04:43.500Z,1013.27
2022-11-30T22:09:43.382Z,1013.33
2022-11-30T22:14:43.347Z,1013.42
2022-11-30T22:19:43.460Z,1013.26
2022-11-30T22:24:44.894Z,1013.31
2022-11-30T22:29:43.116Z,1013.28
2022-11-30T22:34:43.041Z,1013.29
2022-11-30T22:39:43.001Z,1013.29
2022-11-30T22:44:42.996Z,1013.33
2022-11-30T22:49:43.066Z,1013.22
2022-11-30T22:54:42.973Z,1013.38
2022-11-30T22:59:42.888Z,1013.36
2022-11-30T23:04:42.680Z,1013.44
2022-11-30T23:09:42.614Z,1013.43
2022-11-30T23:14:42.658Z,1013.32
2022-11-30T23:19:42.646Z,1013.29
2022-11-30T23:24:42.409Z,1013.23
2022-11-30T23:29:42.537Z,1013.25
2022-11-30T23:34:43.499Z,1013.29
2022-11-30T23:39:42.215Z,1013.30
2022-11-30T23:44:42.207Z,1013.20
2022-11-30T23:49:42.234Z,1013.17
2022-11-30T23:54:42.014Z,1013.11
2022-11-30T23:59:42.031Z,1013.16
